Time;durP1;ratioP1;P1;durP2;ratioP2;P2;SDS_P1;SDS_P2;PMS_P1;PMS_P2;Temp;Humidity;BMP_temperature;BMP_pressure;BME280_temperature;BME280_humidity;BME280_pressure;Samples;Min_cycle;Max_cycle;Signal;HPM_P1;HPM_P2
2022/10/08 00:01:15;;;;;;;12.93;3.28;;;8.30;99.90;;;;;;5040554;28;20052;-58
2022/10/08 00:03:43;;;;;;;10.88;3.33;;;8.30;99.90;;;;;;5034586;28;20060;-59
2022/10/08 00:06:17;;;;;;;10.82;3.50;;;8.30;99.90;;;;;;5031537;28;20044;-58
2022/10/08 00:08:51;;;;;;;18.63;6.03;;;8.40;99.90;;;;;;5029371;28;20021;-59
2022/10/08 00:11:20;;;;;;;20.30;3.80;;;8.50;99.90;;;;;;5031644;28;20039;-59
2022/10/08 00:13:47;;;;;;;13.98;3.65;;;8.50;99.90;;;;;;5034874;28;20026;-59
2022/10/08 00:16:25;;;;;;;9.13;3.03;;;8.50;99.90;;;;;;5036230;28;20093;-59
2022/10/08 00:18:53;;;;;;;11.20;3.45;;;8.50;99.90;;;;;;5027392;28;20036;-58
2022/10/08 00:21:22;;;;;;;14.43;3.47;;;8.50;99.90;;;;;;5038397;28;20088;-59
2022/10/08 00:23:49;;;;;;;17.27;4.13;;;8.40;99.90;;;;;;5031876;28;20037;-59
2022/10/08 00:26:17;;;;;;;10.90;3.25;;;8.50;99.90;;;;;;5033430;28;20451;-60
2022/10/08 00:28:44;;;;;;;14.40;4.32;;;8.50;99.90;;;;;;5029647;28;20388;-59
2022/10/08 00:31:16;;;;;;;17.73;3.97;;;8.30;99.90;;;;;;5030872;28;20021;-59
2022/10/08 00:33:42;;;;;;;16.70;4.93;;;8.40;99.90;;;;;;5030479;28;20060;-60
2022/10/08 00:36:11;;;;;;;13.98;3.70;;;8.30;99.90;;;;;;5030854;28;20471;-56
2022/10/08 00:38:37;;;;;;;9.18;3.70;;;8.30;99.90;;;;;;5030414;28;20021;-60
2022/10/08 00:41:05;;;;;;;9.82;3.10;;;8.30;99.90;;;;;;5030271;28;20514;-60
2022/10/08 00:43:46;;;;;;;18.08;3.65;;;8.30;99.90;;;;;;5027920;28;20492;-59
2022/10/08 00:46:24;;;;;;;9.52;2.97;;;8.30;99.90;;;;;;5030845;28;20458;-58
2022/10/08 00:48:54;;;;;;;11.43;3.53;;;8.20;99.90;;;;;;5030214;28;20045;-60
2022/10/08 00:51:20;;;;;;;12.43;3.08;;;8.20;99.90;;;;;;5027592;28;20029;-59
2022/10/08 00:53:46;;;;;;;8.25;2.70;;;8.20;99.90;;;;;;5030867;28;20032;-59
2022/10/08 00:56:11;;;;;;;12.68;3.22;;;8.20;99.90;;;;;;5032784;28;20060;-60
2022/10/08 00:58:40;;;;;;;14.88;3.22;;;8.20;99.90;;;;;;5034992;28;20434;-60
2022/10/08 01:01:06;;;;;;;10.80;3.38;;;8.20;99.90;;;;;;5029494;28;20025;-56
2022/10/08 01:03:31;;;;;;;12.77;3.25;;;8.10;99.90;;;;;;5038356;28;20040;-59
2022/10/08 01:06:14;;;;;;;15.63;3.47;;;8.00;99.90;;;;;;5032030;28;20064;-57
2022/10/08 01:08:58;;;;;;;14.55;3.15;;;8.00;99.90;;;;;;5031434;28;20052;-58
2022/10/08 01:11:38;;;;;;;14.23;3.40;;;8.00;99.90;;;;;;5043827;28;20407;-58
2022/10/08 01:14:15;;;;;;;8.35;3.35;;;8.00;99.90;;;;;;5026288;28;20023;-57
2022/10/08 01:16:53;;;;;;;21.02;3.80;;;7.90;99.90;;;;;;5027792;28;20052;-57
2022/10/08 01:19:43;;;;;;;15.65;3.28;;;7.90;99.90;;;;;;5030977;28;20053;-58
2022/10/08 01:22:47;;;;;;;8.77;3.35;;;7.90;99.90;;;;;;5032724;28;20032;-56
2022/10/08 01:25:32;;;;;;;10.88;2.90;;;7.80;99.90;;;;;;5012952;28;20040;-55
2022/10/08 01:28:36;;;;;;;24.13;3.47;;;7.80;99.90;;;;;;5030942;28;20048;-59
2022/10/08 01:31:07;;;;;;;15.00;3.03;;;7.80;99.90;;;;;;5024160;28;20099;-56
2022/10/08 01:33:41;;;;;;;12.20;3.40;;;7.80;99.90;;;;;;5033902;28;20029;-59
2022/10/08 01:36:09;;;;;;;16.48;4.15;;;7.80;99.90;;;;;;5031532;28;20032;-55
2022/10/08 01:38:40;;;;;;;15.75;2.97;;;7.70;99.90;;;;;;5029491;28;20038;-56
2022/10/08 01:41:09;;;;;;;16.52;3.42;;;7.70;99.90;;;;;;5029513;28;20037;-58
2022/10/08 01:43:42;;;;;;;15.30;3.20;;;7.70;99.90;;;;;;5033665;28;20040;-58
2022/10/08 01:46:18;;;;;;;8.40;3.17;;;7.70;99.90;;;;;;5029194;28;20040;-56
2022/10/08 01:48:46;;;;;;;13.70;3.75;;;7.70;99.90;;;;;;5029806;28;20284;-57
2022/10/08 01:51:24;;;;;;;9.13;3.40;;;7.60;99.90;;;;;;5036611;28;20017;-58
2022/10/08 01:53:51;;;;;;;14.55;4.30;;;7.60;99.90;;;;;;5034966;28;20029;-56
2022/10/08 01:56:22;;;;;;;12.65;3.78;;;7.70;99.90;;;;;;5030555;28;20427;-57
2022/10/08 01:58:53;;;;;;;13.02;3.20;;;7.70;99.90;;;;;;5035989;28;20407;-59
2022/10/08 02:01:36;;;;;;;16.58;3.35;;;7.70;99.90;;;;;;5036385;28;20494;-58
2022/10/08 02:06:54;;;;;;;16.08;2.75;;;7.70;99.90;;;;;;5034741;28;20040;-59
2022/10/08 02:09:21;;;;;;;7.35;2.72;;;7.80;99.90;;;;;;5025333;28;20044;-59
2022/10/08 02:11:46;;;;;;;3.63;2.22;;;7.90;99.90;;;;;;5031569;28;20057;-58
2022/10/08 02:14:12;;;;;;;19.63;3.30;;;8.00;99.90;;;;;;5035833;28;20056;-59
2022/10/08 02:16:47;;;;;;;6.43;2.35;;;7.90;99.90;;;;;;5034630;28;20470;-59
2022/10/08 02:19:43;;;;;;;10.18;2.72;;;7.80;99.90;;;;;;5034505;28;20024;-59
2022/10/08 02:22:13;;;;;;;13.40;2.78;;;7.80;99.90;;;;;;5033355;28;20037;-58
2022/10/08 02:25:22;;;;;;;7.47;2.45;;;7.80;99.90;;;;;;5033485;28;20065;-58
2022/10/08 02:28:00;;;;;;;5.75;2.30;;;7.80;99.90;;;;;;4989816;28;20141;-60
2022/10/08 02:30:30;;;;;;;8.32;2.88;;;7.90;99.90;;;;;;5025435;28;20073;-58
2022/10/08 02:33:03;;;;;;;7.25;3.00;;;7.90;99.90;;;;;;5035755;28;20547;-59
2022/10/08 02:35:39;;;;;;;11.77;2.75;;;7.90;99.90;;;;;;5034830;28;20099;-59
2022/10/08 02:40:38;;;;;;;18.50;2.97;;;7.90;99.90;;;;;;5025900;28;20266;-65
2022/10/08 02:43:10;;;;;;;7.93;3.58;;;7.80;99.90;;;;;;5037038;28;20031;-65
2022/10/08 02:45:45;;;;;;;11.20;2.92;;;7.80;99.90;;;;;;5031832;28;20037;-65
2022/10/08 02:48:30;;;;;;;13.38;2.75;;;7.80;99.90;;;;;;5038772;28;20024;-65
2022/10/08 02:51:00;;;;;;;11.75;2.67;;;7.70;99.90;;;;;;5038211;28;20032;-65
2022/10/08 02:53:27;;;;;;;9.55;3.45;;;7.70;99.90;;;;;;5031208;28;20034;-65
2022/10/08 02:56:02;;;;;;;10.77;2.78;;;7.60;99.90;;;;;;5036064;28;20048;-65
2022/10/08 02:58:28;;;;;;;8.52;2.63;;;7.60;99.90;;;;;;5035149;28;20056;-65
2022/10/08 03:01:00;;;;;;;11.95;2.88;;;7.60;99.90;;;;;;5036844;28;20105;-65
2022/10/08 03:03:36;;;;;;;10.13;2.60;;;7.70;99.90;;;;;;5034713;28;20115;-65
2022/10/08 03:06:05;;;;;;;15.25;5.10;;;7.70;99.90;;;;;;5027100;28;20030;-64
2022/10/08 03:08:34;;;;;;;9.95;2.92;;;7.70;99.90;;;;;;5034255;28;20030;-65
2022/10/08 03:11:00;;;;;;;15.20;3.13;;;7.70;99.90;;;;;;5032179;28;20021;-65
2022/10/08 03:13:26;;;;;;;12.35;3.30;;;7.70;99.90;;;;;;5033585;28;20041;-65
2022/10/08 03:15:53;;;;;;;13.30;3.03;;;7.60;99.90;;;;;;5031260;28;20112;-64
2022/10/08 03:18:20;;;;;;;13.73;2.85;;;7.60;99.90;;;;;;5035804;28;20037;-65
2022/10/08 03:20:50;;;;;;;17.20;3.40;;;7.50;99.90;;;;;;5033969;28;20040;-65
2022/10/08 03:23:16;;;;;;;11.68;3.28;;;7.60;99.90;;;;;;5033905;28;20037;-65
2022/10/08 03:25:42;;;;;;;8.85;2.40;;;7.60;99.90;;;;;;5028118;28;20499;-65
2022/10/08 03:28:08;;;;;;;13.13;2.75;;;7.60;99.90;;;;;;5028390;28;20030;-65
2022/10/08 03:30:33;;;;;;;11.63;2.50;;;7.70;99.90;;;;;;5032905;28;20100;-65
2022/10/08 03:32:59;;;;;;;9.20;2.25;;;7.70;99.90;;;;;;5037044;28;20087;-65
2022/10/08 03:35:24;;;;;;;14.07;3.17;;;7.80;99.90;;;;;;5032697;28;20033;-65
2022/10/08 03:37:52;;;;;;;14.75;2.67;;;7.80;99.90;;;;;;5034279;28;20034;-65
2022/10/08 03:40:18;;;;;;;8.13;2.17;;;7.80;99.90;;;;;;5030647;28;20099;-64
2022/10/08 03:42:44;;;;;;;4.40;1.70;;;7.80;99.90;;;;;;5032614;28;20041;-65
2022/10/08 03:45:09;;;;;;;12.95;3.00;;;7.80;99.90;;;;;;5031681;28;20025;-65
2022/10/08 03:47:35;;;;;;;12.43;2.75;;;7.80;99.90;;;;;;5028359;28;20030;-65
2022/10/08 03:50:00;;;;;;;11.40;2.50;;;7.80;99.90;;;;;;5026535;28;20392;-65
2022/10/08 03:52:26;;;;;;;4.22;2.05;;;7.80;99.90;;;;;;5032737;28;20062;-65
2022/10/08 03:54:52;;;;;;;15.02;2.97;;;7.90;99.90;;;;;;5023697;28;20025;-65
2022/10/08 03:57:17;;;;;;;8.02;2.05;;;7.90;99.90;;;;;;5029474;28;20045;-64
2022/10/08 03:59:43;;;;;;;7.35;2.17;;;7.90;99.90;;;;;;5028385;28;20037;-65
2022/10/08 04:02:08;;;;;;;5.10;2.33;;;8.00;99.90;;;;;;5035138;28;20163;-65
2022/10/08 04:04:34;;;;;;;10.52;2.40;;;7.90;99.90;;;;;;5036320;28;20078;-65
2022/10/08 04:07:00;;;;;;;5.00;2.35;;;7.90;99.90;;;;;;5029483;28;20098;-64
2022/10/08 04:09:25;;;;;;;10.63;2.25;;;7.90;99.90;;;;;;5030629;28;20022;-65
2022/10/08 04:11:51;;;;;;;14.63;2.35;;;7.90;99.90;;;;;;5033674;28;20033;-65
2022/10/08 04:14:16;;;;;;;7.15;2.08;;;8.00;99.90;;;;;;5034580;28;20037;-65
2022/10/08 04:16:42;;;;;;;7.63;2.45;;;8.10;99.90;;;;;;5029296;28;20407;-65
2022/10/08 04:19:10;;;;;;;9.43;3.38;;;8.20;99.90;;;;;;5034270;28;20033;-65
2022/10/08 04:21:36;;;;;;;9.05;2.55;;;8.20;99.90;;;;;;5030153;28;20032;-65
2022/10/08 04:24:01;;;;;;;4.85;2.22;;;8.30;99.90;;;;;;5041166;28;20387;-65
2022/10/08 04:26:27;;;;;;;5.88;1.98;;;8.40;99.90;;;;;;5030148;28;20447;-65
2022/10/08 04:28:52;;;;;;;9.30;2.40;;;8.40;99.90;;;;;;5030352;28;20022;-65
2022/10/08 04:31:21;;;;;;;14.45;2.63;;;8.50;99.90;;;;;;5032019;28;20571;-65
2022/10/08 04:33:48;;;;;;;11.10;2.78;;;8.60;99.90;;;;;;5032574;28;20151;-65
2022/10/08 04:36:16;;;;;;;12.50;3.30;;;8.60;99.90;;;;;;5029666;28;20025;-65
2022/10/08 04:38:42;;;;;;;9.27;2.42;;;8.70;99.90;;;;;;5037551;28;20033;-65
2022/10/08 04:41:11;;;;;;;15.80;3.13;;;8.80;99.90;;;;;;5031793;28;20505;-65
2022/10/08 04:43:38;;;;;;;9.45;2.72;;;8.80;99.90;;;;;;5037223;28;20057;-65
2022/10/08 04:46:04;;;;;;;12.55;2.92;;;8.90;99.90;;;;;;5026198;28;20535;-65
2022/10/08 04:48:30;;;;;;;8.98;3.78;;;8.90;99.90;;;;;;5028287;28;20093;-63
2022/10/08 04:51:01;;;;;;;9.88;2.72;;;9.00;99.90;;;;;;5028690;28;20494;-65
2022/10/08 04:53:28;;;;;;;11.73;3.45;;;9.10;99.90;;;;;;5028373;28;20060;-65
2022/10/08 04:55:54;;;;;;;16.80;5.15;;;9.10;99.90;;;;;;5035792;28;20080;-65
2022/10/08 04:58:21;;;;;;;9.32;4.40;;;9.10;99.90;;;;;;5031569;28;20025;-65
2022/10/08 05:00:46;;;;;;;14.48;5.38;;;9.20;99.90;;;;;;5024149;28;20057;-65
2022/10/08 05:03:12;;;;;;;14.02;5.50;;;9.20;99.90;;;;;;5028469;28;20451;-63
2022/10/08 05:05:42;;;;;;;12.70;3.55;;;9.20;99.90;;;;;;5032146;28;20065;-65
2022/10/08 05:08:08;;;;;;;16.33;3.45;;;9.20;99.90;;;;;;5025982;28;20021;-66
2022/10/08 05:10:34;;;;;;;9.30;3.40;;;9.20;99.90;;;;;;5030695;28;20495;-66
2022/10/08 05:13:00;;;;;;;8.48;3.47;;;9.30;99.90;;;;;;5030758;28;20025;-65
2022/10/08 05:15:26;;;;;;;12.32;3.60;;;9.20;99.90;;;;;;5029314;28;20373;-65
2022/10/08 05:17:52;;;;;;;13.85;3.70;;;9.30;99.90;;;;;;5031227;28;20025;-65
2022/10/08 05:20:17;;;;;;;15.82;4.00;;;9.30;99.90;;;;;;5031295;28;20099;-65
2022/10/08 05:22:43;;;;;;;14.20;3.60;;;9.30;99.90;;;;;;5024338;28;20479;-65
2022/10/08 05:25:08;;;;;;;17.83;3.58;;;9.30;99.90;;;;;;5028674;28;20025;-66
2022/10/08 05:27:34;;;;;;;7.68;3.40;;;9.40;99.90;;;;;;5028524;28;20422;-65
2022/10/08 05:30:01;;;;;;;12.63;3.42;;;9.30;99.90;;;;;;5026683;28;20470;-65
2022/10/08 05:32:27;;;;;;;10.90;3.55;;;9.30;99.90;;;;;;5020692;28;20079;-64
2022/10/08 05:34:52;;;;;;;15.02;3.20;;;9.40;99.90;;;;;;5030818;28;20034;-65
2022/10/08 05:37:18;;;;;;;14.93;3.40;;;9.40;99.90;;;;;;5025301;28;20037;-65
2022/10/08 05:39:44;;;;;;;15.75;3.60;;;9.50;99.90;;;;;;5031335;28;20037;-65
2022/10/08 05:42:10;;;;;;;9.05;3.40;;;9.60;99.90;;;;;;5029607;28;20036;-65
2022/10/08 05:44:36;;;;;;;11.65;3.05;;;9.60;99.90;;;;;;5032280;28;20022;-65
2022/10/08 05:47:01;;;;;;;12.90;3.42;;;9.70;99.90;;;;;;5021607;28;20017;-64
2022/10/08 05:49:27;;;;;;;17.13;4.05;;;9.70;99.90;;;;;;5023585;28;20451;-65
2022/10/08 05:51:53;;;;;;;13.35;3.78;;;9.80;99.90;;;;;;5025333;28;20025;-65
2022/10/08 05:54:19;;;;;;;15.32;3.70;;;9.90;99.90;;;;;;5027435;28;20484;-66
2022/10/08 05:56:45;;;;;;;16.13;3.50;;;9.90;99.90;;;;;;5031884;28;21898;-65
2022/10/08 05:59:16;;;;;;;20.27;3.20;;;10.00;99.90;;;;;;5028509;28;20525;-65
2022/10/08 06:01:41;;;;;;;17.13;3.10;;;10.00;99.90;;;;;;5026010;28;20052;-64
2022/10/08 06:04:09;;;;;;;17.02;3.42;;;10.10;99.90;;;;;;5026242;28;20025;-64
2022/10/08 06:06:36;;;;;;;13.57;4.00;;;10.10;99.90;;;;;;5026785;28;20021;-65
2022/10/08 06:09:02;;;;;;;18.38;3.13;;;10.20;99.90;;;;;;5029937;28;20044;-65
2022/10/08 06:11:30;;;;;;;15.60;4.53;;;10.20;99.90;;;;;;5027983;28;20048;-65
2022/10/08 06:13:57;;;;;;;17.25;5.03;;;10.50;99.90;;;;;;5032899;28;20024;-65
2022/10/08 06:16:24;;;;;;;21.55;5.20;;;10.60;99.90;;;;;;5026451;28;20032;-66
2022/10/08 06:18:51;;;;;;;24.10;7.43;;;10.70;99.90;;;;;;5026004;28;20102;-65
2022/10/08 06:21:22;;;;;;;23.98;8.18;;;10.80;99.90;;;;;;5028488;28;20553;-66
2022/10/08 06:23:53;;;;;;;23.05;8.02;;;11.00;99.90;;;;;;5026286;28;20089;-65
2022/10/08 06:26:20;;;;;;;26.25;7.88;;;11.20;99.90;;;;;;5019327;28;20056;-66
2022/10/08 06:28:47;;;;;;;24.05;9.15;;;11.30;99.90;;;;;;5025932;28;20017;-66
2022/10/08 06:31:12;;;;;;;25.83;8.88;;;11.40;99.90;;;;;;5029850;28;20037;-65
2022/10/08 06:33:38;;;;;;;25.77;9.00;;;11.60;99.90;;;;;;5026168;28;20056;-65
2022/10/08 06:36:06;;;;;;;28.75;9.30;;;11.60;99.90;;;;;;5033535;28;20478;-65
2022/10/08 06:38:32;;;;;;;22.35;9.18;;;11.70;99.90;;;;;;5026079;28;20508;-65
2022/10/08 06:40:58;;;;;;;26.48;9.63;;;11.70;99.90;;;;;;5030074;28;20401;-66
2022/10/08 06:43:24;;;;;;;26.67;9.77;;;11.80;99.90;;;;;;5024412;28;20062;-65
2022/10/08 06:45:49;;;;;;;23.10;8.55;;;11.90;99.90;;;;;;5027894;28;20058;-65
2022/10/08 06:48:15;;;;;;;17.98;8.57;;;11.90;99.90;;;;;;5027929;28;20056;-65
2022/10/08 06:50:41;;;;;;;18.55;8.98;;;12.00;99.90;;;;;;5032013;28;20057;-64
2022/10/08 06:53:08;;;;;;;27.05;8.75;;;12.00;99.90;;;;;;5030087;28;20105;-65
2022/10/08 06:55:34;;;;;;;15.90;8.77;;;12.00;99.90;;;;;;5032995;28;20034;-65
2022/10/08 06:58:01;;;;;;;18.92;9.15;;;12.00;99.90;;;;;;5023399;28;20109;-65
2022/10/08 07:00:27;;;;;;;22.88;8.18;;;12.10;99.90;;;;;;5027937;28;20026;-65
2022/10/08 07:02:52;;;;;;;27.42;8.40;;;12.10;99.90;;;;;;5028004;28;20088;-65
2022/10/08 07:05:18;;;;;;;22.50;7.47;;;12.10;99.90;;;;;;5034904;28;20025;-65
2022/10/08 07:07:44;;;;;;;19.45;6.93;;;12.20;99.90;;;;;;5034077;28;20104;-65
2022/10/08 07:10:10;;;;;;;17.80;7.68;;;12.30;99.90;;;;;;5030109;28;20034;-66
2022/10/08 07:12:36;;;;;;;19.13;8.00;;;12.30;99.90;;;;;;5019388;28;20105;-65
2022/10/08 07:15:01;;;;;;;29.42;7.78;;;12.40;99.90;;;;;;5035397;28;20112;-65
2022/10/08 07:17:28;;;;;;;19.20;8.02;;;12.40;99.90;;;;;;5025563;28;20099;-65
2022/10/08 07:19:54;;;;;;;20.98;8.38;;;12.50;99.90;;;;;;5023807;28;20018;-65
2022/10/08 07:22:21;;;;;;;17.10;7.53;;;12.60;99.90;;;;;;5017991;28;20084;-65
2022/10/08 07:24:46;;;;;;;21.77;6.60;;;12.60;99.90;;;;;;5023185;28;20475;-65
2022/10/08 07:27:12;;;;;;;25.30;8.02;;;12.60;99.90;;;;;;5027989;28;20025;-68
2022/10/08 07:29:38;;;;;;;18.85;7.93;;;12.70;99.90;;;;;;5029941;28;20034;-65
2022/10/08 07:32:03;;;;;;;18.58;7.47;;;12.70;99.90;;;;;;5017514;28;20449;-65
2022/10/08 07:34:29;;;;;;;33.55;7.68;;;12.70;99.90;;;;;;5018400;28;20053;-65
2022/10/08 07:36:54;;;;;;;17.20;6.63;;;12.70;99.90;;;;;;5024712;28;20084;-65
2022/10/08 07:39:21;;;;;;;21.48;7.38;;;12.80;99.90;;;;;;5022737;28;20033;-65
2022/10/08 07:41:48;;;;;;;26.85;7.30;;;12.80;99.90;;;;;;5027885;28;20048;-66
2022/10/08 07:44:14;;;;;;;16.60;6.80;;;12.90;99.90;;;;;;5035681;28;20567;-66
2022/10/08 07:46:48;;;;;;;23.10;8.20;;;12.90;99.90;;;;;;5030499;28;20057;-66
2022/10/08 07:49:15;;;;;;;22.25;7.38;;;13.00;99.90;;;;;;5019658;28;20021;-65
2022/10/08 07:51:41;;;;;;;14.63;7.28;;;13.00;99.90;;;;;;5016800;28;20030;-65
2022/10/08 07:54:07;;;;;;;24.52;6.72;;;13.00;99.90;;;;;;5035862;28;20032;-65
2022/10/08 07:56:34;;;;;;;16.63;6.75;;;13.10;99.90;;;;;;5014428;28;20073;-66
2022/10/08 07:59:00;;;;;;;21.60;6.50;;;13.10;99.90;;;;;;5024368;28;20021;-65
2022/10/08 08:01:28;;;;;;;21.23;6.25;;;13.10;99.90;;;;;;5020024;28;20103;-65
2022/10/08 08:03:56;;;;;;;23.67;7.10;;;13.10;99.90;;;;;;5026929;28;20034;-65
2022/10/08 08:06:25;;;;;;;21.42;7.88;;;13.20;99.90;;;;;;5024863;28;20171;-65
2022/10/08 08:08:51;;;;;;;19.45;8.55;;;13.20;99.90;;;;;;5018554;28;20101;-59
2022/10/08 08:11:19;;;;;;;23.58;7.72;;;13.10;99.90;;;;;;5019453;28;20555;-58
2022/10/08 08:13:45;;;;;;;30.50;9.05;;;13.10;99.90;;;;;;5025090;28;20047;-59
2022/10/08 08:16:16;;;;;;;22.83;7.53;;;13.00;99.90;;;;;;5032928;28;20542;-58
2022/10/08 08:18:44;;;;;;;12.73;7.30;;;13.00;99.90;;;;;;5022869;28;20084;-59
2022/10/08 08:21:12;;;;;;;22.65;7.60;;;13.00;99.90;;;;;;5024710;28;20026;-57
2022/10/08 08:23:40;;;;;;;22.85;8.10;;;13.10;99.90;;;;;;5019048;28;20103;-56
2022/10/08 08:26:12;;;;;;;23.60;7.40;;;13.20;99.90;;;;;;5037987;28;20049;-58
2022/10/08 08:28:38;;;;;;;15.05;6.95;;;13.20;99.90;;;;;;5019690;28;20042;-59
2022/10/08 08:31:16;;;;;;;23.58;7.93;;;13.30;99.90;;;;;;5029565;28;20025;-58
2022/10/08 08:33:45;;;;;;;19.65;7.60;;;13.40;99.90;;;;;;5031038;28;20060;-58
2022/10/08 08:36:11;;;;;;;25.65;7.38;;;13.50;99.90;;;;;;5038580;28;20052;-57
2022/10/08 08:38:37;;;;;;;27.20;8.57;;;13.70;99.90;;;;;;5022194;28;20068;-59
2022/10/08 08:41:27;;;;;;;21.60;7.78;;;13.80;99.90;;;;;;5043666;28;20024;-60
2022/10/08 08:44:02;;;;;;;18.75;6.95;;;13.90;99.90;;;;;;5046149;22;20040;-51
2022/10/08 08:46:32;;;;;;;18.15;6.63;;;14.00;99.90;;;;;;4983153;28;20049;-51
2022/10/08 08:49:04;;;;;;;19.98;6.45;;;14.00;99.90;;;;;;4980746;28;20034;-51
2022/10/08 08:51:30;;;;;;;18.17;6.57;;;14.00;99.90;;;;;;4987692;28;20488;-52
2022/10/08 08:53:56;;;;;;;27.45;5.97;;;14.10;99.90;;;;;;4983652;28;20034;-52
2022/10/08 08:56:23;;;;;;;24.33;6.57;;;14.10;99.90;;;;;;4962656;28;20038;-54
2022/10/08 08:59:30;;;;;;;15.50;5.68;;;14.10;99.90;;;;;;4966642;28;20034;-59
2022/10/08 09:02:00;;;;;;;28.80;6.07;;;14.10;99.90;;;;;;4950473;29;20058;-57
2022/10/08 09:04:32;;;;;;;18.30;5.30;;;14.20;99.90;;;;;;4950024;28;20031;-57
2022/10/08 09:07:00;;;;;;;9.27;3.65;;;14.20;99.90;;;;;;4951589;28;20568;-59
2022/10/08 09:09:39;;;;;;;19.60;5.05;;;14.10;99.90;;;;;;4969893;28;20461;-55
2022/10/08 09:12:18;;;;;;;20.88;4.15;;;14.10;99.90;;;;;;4962868;28;20034;-56
2022/10/08 09:14:50;;;;;;;12.57;4.25;;;14.20;99.90;;;;;;4967581;28;20389;-56
2022/10/08 09:17:19;;;;;;;16.67;4.97;;;14.30;99.90;;;;;;4970416;28;20560;-59
2022/10/08 09:19:45;;;;;;;13.68;4.50;;;14.40;99.90;;;;;;4970900;28;20370;-56
2022/10/08 09:22:16;;;;;;;17.40;5.13;;;14.50;99.90;;;;;;4975255;28;20555;-56
2022/10/08 09:24:42;;;;;;;11.35;3.25;;;14.60;99.90;;;;;;4972776;28;20031;-57
2022/10/08 09:27:13;;;;;;;14.55;3.92;;;14.70;99.90;;;;;;4968363;28;20029;-59
2022/10/08 09:29:39;;;;;;;10.50;3.13;;;14.80;99.90;;;;;;4965330;28;20437;-58
2022/10/08 09:32:06;;;;;;;12.10;3.60;;;14.80;99.90;;;;;;4971236;28;20031;-58
2022/10/08 09:34:32;;;;;;;14.70;3.45;;;14.90;99.90;;;;;;4971379;28;20484;-56
2022/10/08 09:37:02;;;;;;;6.28;3.50;;;14.90;99.90;;;;;;4968437;28;20027;-56
2022/10/08 09:39:33;;;;;;;11.43;3.55;;;15.10;99.90;;;;;;4977864;28;20062;-57
2022/10/08 09:42:16;;;;;;;12.32;3.38;;;15.20;99.90;;;;;;4973713;28;20031;-57
2022/10/08 09:45:08;;;;;;;11.85;3.50;;;15.20;99.90;;;;;;4979148;28;20114;-56
2022/10/08 09:47:33;;;;;;;16.35;3.28;;;15.10;99.90;;;;;;4954657;28;20149;-54
2022/10/08 09:50:06;;;;;;;25.70;4.00;;;15.10;99.90;;;;;;4978944;28;20102;-58
2022/10/08 09:52:34;;;;;;;9.40;3.67;;;15.20;99.90;;;;;;4991481;28;20038;-55
2022/10/08 09:55:08;;;;;;;12.55;3.40;;;15.50;99.90;;;;;;4976877;28;20098;-57
2022/10/08 09:57:44;;;;;;;12.18;2.92;;;15.60;99.90;;;;;;4975792;28;20029;-56
2022/10/08 10:00:27;;;;;;;13.57;3.20;;;15.60;99.90;;;;;;4981715;28;20081;-54
2022/10/08 10:02:56;;;;;;;10.90;2.83;;;15.60;99.90;;;;;;4993392;28;20129;-57
2022/10/08 10:05:25;;;;;;;16.13;3.25;;;15.70;99.90;;;;;;4979690;28;20804;-57
2022/10/08 10:07:51;;;;;;;16.10;3.80;;;15.70;99.90;;;;;;4982851;28;20026;-54
2022/10/08 10:10:38;;;;;;;20.25;2.67;;;15.70;99.90;;;;;;4981172;28;20027;-58
2022/10/08 10:13:12;;;;;;;7.28;2.60;;;15.80;99.90;;;;;;4979073;28;20027;-56
2022/10/08 10:15:44;;;;;;;10.10;3.05;;;15.70;99.90;;;;;;4985798;28;20041;-58
2022/10/08 10:18:17;;;;;;;9.82;3.20;;;15.40;99.90;;;;;;4980150;28;20108;-53
2022/10/08 10:20:57;;;;;;;12.53;2.67;;;15.40;99.90;;;;;;4982263;28;20077;-55
2022/10/08 10:23:36;;;;;;;11.88;2.70;;;15.70;99.90;;;;;;4986892;28;20030;-54
2022/10/08 10:26:07;;;;;;;16.20;2.58;;;15.60;99.90;;;;;;4987404;28;21012;-55
2022/10/08 10:28:56;;;;;;;8.85;2.58;;;15.70;99.90;;;;;;4976629;28;20050;-56
2022/10/08 10:31:37;;;;;;;9.75;2.00;;;16.00;99.90;;;;;;4984231;28;20528;-57
2022/10/08 10:34:16;;;;;;;12.40;2.00;;;16.30;99.90;;;;;;4985190;28;20042;-57
2022/10/08 10:37:04;;;;;;;7.95;2.20;;;16.50;99.90;;;;;;4975482;28;20045;-54
2022/10/08 10:39:52;;;;;;;8.77;2.67;;;16.30;99.90;;;;;;4976719;28;20053;-56
2022/10/08 10:42:40;;;;;;;8.50;1.75;;;16.00;99.90;;;;;;4978589;28;20038;-54
2022/10/08 10:45:38;;;;;;;13.18;2.78;;;15.80;99.90;;;;;;4974049;28;20035;-58
2022/10/08 10:48:06;;;;;;;6.85;2.22;;;15.60;99.90;;;;;;4965697;28;20039;-57
2022/10/08 10:50:59;;;;;;;7.95;2.72;;;15.60;99.90;;;;;;4982115;28;20026;-57
2022/10/08 10:53:47;;;;;;;18.58;2.63;;;15.60;99.90;;;;;;4973491;28;20118;-57
2022/10/08 10:56:16;;;;;;;11.48;3.20;;;15.80;99.90;;;;;;4969307;28;20039;-57
2022/10/08 10:59:20;;;;;;;7.93;1.92;;;16.20;99.90;;;;;;4976104;28;20535;-56
2022/10/08 11:02:13;;;;;;;7.20;1.65;;;16.20;99.90;;;;;;4938734;29;20046;-56
2022/10/08 11:05:09;;;;;;;8.23;1.50;;;16.40;99.90;;;;;;4939867;29;20031;-58
2022/10/08 11:07:53;;;;;;;6.57;1.50;;;16.40;99.90;;;;;;4981081;28;20154;-55
2022/10/08 11:10:41;;;;;;;10.55;1.48;;;16.70;99.90;;;;;;4982607;28;20547;-55
2022/10/08 11:13:20;;;;;;;10.65;1.52;;;16.80;99.90;;;;;;4976730;28;20150;-57
2022/10/08 11:16:05;;;;;;;10.48;1.35;;;16.90;99.90;;;;;;4978914;28;20026;-56
2022/10/08 11:18:55;;;;;;;13.52;1.83;;;17.00;99.90;;;;;;4984359;28;20031;-56
2022/10/08 11:21:51;;;;;;;7.80;1.90;;;17.30;99.90;;;;;;4981071;28;20035;-55
2022/10/08 11:24:43;;;;;;;7.38;1.83;;;17.50;99.90;;;;;;4966483;28;20497;-58
2022/10/08 11:27:31;;;;;;;5.72;1.25;;;17.90;99.90;;;;;;4973311;28;20026;-59
2022/10/08 11:30:12;;;;;;;10.95;1.52;;;18.20;99.90;;;;;;4973937;28;20424;-54
2022/10/08 11:32:39;;;;;;;8.73;1.55;;;18.10;99.90;;;;;;4974303;28;20033;-55
2022/10/08 11:35:36;;;;;;;9.82;1.83;;;17.70;99.90;;;;;;4972874;28;20031;-55
2022/10/08 11:38:30;;;;;;;4.90;1.35;;;17.00;99.90;;;;;;4973417;28;20027;-55
2022/10/08 11:41:25;;;;;;;6.38;1.80;;;16.70;99.90;;;;;;4972990;28;20037;-56
2022/10/08 11:44:10;;;;;;;7.15;1.60;;;16.70;99.90;;;;;;4972139;28;20054;-56
2022/10/08 11:46:36;;;;;;;12.25;1.92;;;17.20;99.90;;;;;;4973796;28;20054;-55
2022/10/08 11:49:21;;;;;;;4.88;1.42;;;17.60;99.90;;;;;;4979944;28;20428;-53
2022/10/08 11:51:51;;;;;;;7.70;1.77;;;17.90;99.90;;;;;;4971472;28;20026;-55
2022/10/08 11:54:29;;;;;;;5.95;1.17;;;17.60;99.90;;;;;;4970731;28;20029;-55
2022/10/08 11:57:23;;;;;;;14.73;2.15;;;17.70;99.90;;;;;;4964148;28;20026;-56
2022/10/08 11:59:51;;;;;;;24.15;1.83;;;17.50;99.90;;;;;;4971040;28;20045;-55
2022/10/08 12:02:29;;;;;;;11.40;1.92;;;17.10;99.90;;;;;;4969029;28;20031;-55
2022/10/08 12:04:57;;;;;;;13.75;1.95;;;16.80;99.90;;;;;;4973454;28;20034;-55
2022/10/08 12:07:36;;;;;;;13.05;2.70;;;16.50;99.90;;;;;;4973497;28;20031;-58
2022/10/08 12:10:05;;;;;;;8.15;1.60;;;16.60;99.90;;;;;;4971845;28;20378;-52
2022/10/08 12:12:49;;;;;;;12.05;2.05;;;16.50;99.90;;;;;;4972756;28;20031;-55
2022/10/08 12:15:23;;;;;;;13.40;1.93;;;16.40;99.90;;;;;;4974314;28;20042;-58
2022/10/08 12:18:00;;;;;;;11.23;1.75;;;16.30;99.90;;;;;;4964542;28;20031;-54
2022/10/08 12:20:31;;;;;;;7.10;1.38;;;16.10;99.90;;;;;;4970890;28;20039;-56
2022/10/08 12:23:33;;;;;;;8.82;1.73;;;15.90;99.90;;;;;;4970815;28;20038;-55
2022/10/08 12:26:07;;;;;;;11.45;1.40;;;15.90;99.90;;;;;;4963994;28;20045;-55
2022/10/08 12:28:36;;;;;;;3.80;1.00;;;16.00;99.90;;;;;;4971695;28;20094;-57
2022/10/08 12:31:22;;;;;;;13.43;1.65;;;16.50;99.90;;;;;;4966604;28;20030;-57
2022/10/08 12:33:58;;;;;;;6.10;1.65;;;16.70;99.90;;;;;;4968933;28;20511;-56
2022/10/08 12:36:40;;;;;;;5.43;1.23;;;16.70;99.90;;;;;;4970340;28;20035;-54
2022/10/08 12:39:29;;;;;;;9.77;1.40;;;16.80;99.90;;;;;;4971708;28;20029;-55
2022/10/08 12:42:11;;;;;;;9.25;1.30;;;16.80;99.90;;;;;;4970818;28;20038;-55
2022/10/08 12:44:45;;;;;;;10.48;1.02;;;16.70;99.90;;;;;;4971668;28;20224;-55
2022/10/08 12:47:23;;;;;;;5.70;1.27;;;16.60;99.90;;;;;;4970311;28;20030;-58
2022/10/08 12:49:49;;;;;;;5.57;1.40;;;16.80;99.90;;;;;;4970476;28;20019;-53
2022/10/08 12:52:16;;;;;;;4.10;1.00;;;17.00;99.90;;;;;;4972129;28;20097;-57
2022/10/08 12:54:51;;;;;;;5.22;1.00;;;17.30;99.90;;;;;;4974959;28;20035;-56
2022/10/08 12:57:28;;;;;;;;;;;17.80;99.90;;;;;;4969488;28;20039;-57
2022/10/08 12:59:56;;;;;;;5.55;0.93;;;18.00;99.90;;;;;;4969746;28;19939;-58
2022/10/08 13:02:42;;;;;;;5.80;1.00;;;18.30;99.90;;;;;;4972146;28;20038;-58
2022/10/08 13:05:23;;;;;;;5.25;1.27;;;18.50;99.90;;;;;;4973277;28;20121;-56
2022/10/08 13:07:49;;;;;;;5.25;1.00;;;18.80;99.90;;;;;;4974708;28;20054;-58
2022/10/08 13:10:35;;;;;;;7.28;1.20;;;18.60;99.90;;;;;;4973753;28;20045;-56
2022/10/08 13:13:06;;;;;;;4.53;0.77;;;18.90;99.90;;;;;;4983097;28;20516;-56
2022/10/08 13:15:33;;;;;;;2.75;0.75;;;19.00;99.90;;;;;;4974702;28;20492;-56